sensor_id;sensor_type;location;lat;lon;timestamp;P1;durP1;ratioP1;P2;durP2;ratioP2
8887;SDS011;4480;52.370;9.748;2022-07-19T00:00:20;8.03;;;5.23;;
8887;SDS011;4480;52.370;9.748;2022-07-19T00:02:48;9.60;;;5.77;;
8887;SDS011;4480;52.370;9.748;2022-07-19T00:05:15;5.03;;;4.47;;
8887;SDS011;4480;52.370;9.748;2022-07-19T00:07:43;7.60;;;5.50;;
8887;SDS011;4480;52.370;9.748;2022-07-19T00:10:11;8.13;;;4.90;;
8887;SDS011;4480;52.370;9.748;2022-07-19T00:12:43;7.90;;;5.73;;
8887;SDS011;4480;52.370;9.748;2022-07-19T00:15:12;6.50;;;4.90;;
8887;SDS011;4480;52.370;9.748;2022-07-19T00:17:41;6.00;;;4.83;;
8887;SDS011;4480;52.370;9.748;2022-07-19T00:20:10;7.57;;;4.87;;
8887;SDS011;4480;52.370;9.748;2022-07-19T00:22:38;5.00;;;4.50;;
8887;SDS011;4480;52.370;9.748;2022-07-19T00:25:06;6.33;;;4.13;;
8887;SDS011;4480;52.370;9.748;2022-07-19T00:27:33;5.00;;;4.40;;
8887;SDS011;4480;52.370;9.748;2022-07-19T00:30:03;5.50;;;4.70;;
8887;SDS011;4480;52.370;9.748;2022-07-19T00:32:31;6.93;;;4.10;;
8887;SDS011;4480;52.370;9.748;2022-07-19T00:34:58;6.53;;;3.80;;
8887;SDS011;4480;52.370;9.748;2022-07-19T00:37:26;4.70;;;3.70;;
8887;SDS011;4480;52.370;9.748;2022-07-19T00:39:53;5.40;;;4.17;;
8887;SDS011;4480;52.370;9.748;2022-07-19T00:42:20;5.30;;;4.27;;
8887;SDS011;4480;52.370;9.748;2022-07-19T00:44:48;8.93;;;4.00;;
8887;SDS011;4480;52.370;9.748;2022-07-19T00:47:16;5.57;;;4.03;;
8887;SDS011;4480;52.370;9.748;2022-07-19T00:49:44;11.00;;;3.97;;
8887;SDS011;4480;52.370;9.748;2022-07-19T00:52:11;6.20;;;4.00;;
8887;SDS011;4480;52.370;9.748;2022-07-19T00:54:41;6.20;;;4.03;;
8887;SDS011;4480;52.370;9.748;2022-07-19T00:57:09;4.93;;;3.70;;
8887;SDS011;4480;52.370;9.748;2022-07-19T00:59:37;8.10;;;3.77;;
8887;SDS011;4480;52.370;9.748;2022-07-19T01:02:05;8.30;;;4.07;;
8887;SDS011;4480;52.370;9.748;2022-07-19T01:04:34;7.33;;;4.17;;
8887;SDS011;4480;52.370;9.748;2022-07-19T01:07:01;5.80;;;3.67;;
8887;SDS011;4480;52.370;9.748;2022-07-19T01:09:29;5.43;;;3.73;;
8887;SDS011;4480;52.370;9.748;2022-07-19T01:11:56;5.40;;;3.60;;
8887;SDS011;4480;52.370;9.748;2022-07-19T01:14:24;6.53;;;3.17;;
8887;SDS011;4480;52.370;9.748;2022-07-19T01:16:51;5.77;;;3.93;;
8887;SDS011;4480;52.370;9.748;2022-07-19T01:19:18;5.40;;;3.67;;
8887;SDS011;4480;52.370;9.748;2022-07-19T01:21:47;6.13;;;3.90;;
8887;SDS011;4480;52.370;9.748;2022-07-19T01:24:15;5.70;;;3.07;;
8887;SDS011;4480;52.370;9.748;2022-07-19T01:26:42;5.47;;;3.67;;
8887;SDS011;4480;52.370;9.748;2022-07-19T01:29:13;4.63;;;3.80;;
8887;SDS011;4480;52.370;9.748;2022-07-19T01:31:41;6.40;;;3.67;;
8887;SDS011;4480;52.370;9.748;2022-07-19T01:34:08;4.87;;;4.20;;
8887;SDS011;4480;52.370;9.748;2022-07-19T01:36:35;9.07;;;3.80;;
8887;SDS011;4480;52.370;9.748;2022-07-19T01:39:04;8.53;;;3.50;;
8887;SDS011;4480;52.370;9.748;2022-07-19T01:41:31;4.73;;;3.70;;
8887;SDS011;4480;52.370;9.748;2022-07-19T01:43:59;4.57;;;3.47;;
8887;SDS011;4480;52.370;9.748;2022-07-19T01:46:26;4.40;;;3.97;;
8887;SDS011;4480;52.370;9.748;2022-07-19T01:48:53;9.33;;;3.43;;
8887;SDS011;4480;52.370;9.748;2022-07-19T01:51:21;8.60;;;3.40;;
8887;SDS011;4480;52.370;9.748;2022-07-19T01:53:48;4.87;;;3.43;;
8887;SDS011;4480;52.370;9.748;2022-07-19T01:56:16;8.90;;;3.80;;
8887;SDS011;4480;52.370;9.748;2022-07-19T01:58:44;6.97;;;3.80;;
8887;SDS011;4480;52.370;9.748;2022-07-19T02:01:11;4.30;;;3.40;;
8887;SDS011;4480;52.370;9.748;2022-07-19T02:03:38;6.60;;;3.57;;
8887;SDS011;4480;52.370;9.748;2022-07-19T02:06:06;8.20;;;3.83;;
8887;SDS011;4480;52.370;9.748;2022-07-19T02:08:33;5.73;;;3.20;;
8887;SDS011;4480;52.370;9.748;2022-07-19T02:11:00;11.17;;;3.13;;
8887;SDS011;4480;52.370;9.748;2022-07-19T02:13:49;8.23;;;3.53;;
8887;SDS011;4480;52.370;9.748;2022-07-19T02:16:17;4.20;;;3.17;;
8887;SDS011;4480;52.370;9.748;2022-07-19T02:18:44;3.90;;;3.33;;
8887;SDS011;4480;52.370;9.748;2022-07-19T02:21:11;5.30;;;3.67;;
8887;SDS011;4480;52.370;9.748;2022-07-19T02:23:39;8.63;;;3.40;;
8887;SDS011;4480;52.370;9.748;2022-07-19T02:26:06;5.27;;;4.03;;
8887;SDS011;4480;52.370;9.748;2022-07-19T02:28:33;7.07;;;4.10;;
8887;SDS011;4480;52.370;9.748;2022-07-19T02:31:02;5.63;;;3.70;;
8887;SDS011;4480;52.370;9.748;2022-07-19T02:33:30;4.50;;;3.43;;
8887;SDS011;4480;52.370;9.748;2022-07-19T02:35:57;4.00;;;3.60;;
8887;SDS011;4480;52.370;9.748;2022-07-19T02:38:24;8.60;;;3.43;;
8887;SDS011;4480;52.370;9.748;2022-07-19T02:40:52;6.80;;;3.20;;
8887;SDS011;4480;52.370;9.748;2022-07-19T02:43:19;4.30;;;3.13;;
8887;SDS011;4480;52.370;9.748;2022-07-19T02:45:46;4.53;;;3.30;;
8887;SDS011;4480;52.370;9.748;2022-07-19T02:48:15;5.30;;;3.03;;
8887;SDS011;4480;52.370;9.748;2022-07-19T02:50:43;6.23;;;3.97;;
8887;SDS011;4480;52.370;9.748;2022-07-19T02:53:11;4.47;;;2.80;;
8887;SDS011;4480;52.370;9.748;2022-07-19T02:55:38;4.40;;;2.60;;
8887;SDS011;4480;52.370;9.748;2022-07-19T02:58:05;7.77;;;4.07;;
8887;SDS011;4480;52.370;9.748;2022-07-19T03:00:33;4.97;;;3.63;;
8887;SDS011;4480;52.370;9.748;2022-07-19T03:03:00;4.07;;;3.27;;
8887;SDS011;4480;52.370;9.748;2022-07-19T03:05:43;6.90;;;3.67;;
8887;SDS011;4480;52.370;9.748;2022-07-19T03:08:11;5.30;;;3.17;;
8887;SDS011;4480;52.370;9.748;2022-07-19T03:10:38;5.27;;;3.40;;
8887;SDS011;4480;52.370;9.748;2022-07-19T03:13:06;5.20;;;3.70;;
8887;SDS011;4480;52.370;9.748;2022-07-19T03:15:34;5.13;;;3.13;;
8887;SDS011;4480;52.370;9.748;2022-07-19T03:18:01;3.37;;;2.97;;
8887;SDS011;4480;52.370;9.748;2022-07-19T03:20:29;5.50;;;2.97;;
8887;SDS011;4480;52.370;9.748;2022-07-19T03:22:57;4.23;;;2.80;;
8887;SDS011;4480;52.370;9.748;2022-07-19T03:25:25;5.23;;;3.00;;
8887;SDS011;4480;52.370;9.748;2022-07-19T03:27:52;6.87;;;3.40;;
8887;SDS011;4480;52.370;9.748;2022-07-19T03:30:19;5.33;;;3.23;;
8887;SDS011;4480;52.370;9.748;2022-07-19T03:32:48;5.20;;;3.37;;
8887;SDS011;4480;52.370;9.748;2022-07-19T03:35:15;9.53;;;3.67;;
8887;SDS011;4480;52.370;9.748;2022-07-19T03:37:42;6.93;;;3.30;;
8887;SDS011;4480;52.370;9.748;2022-07-19T03:40:11;3.90;;;3.20;;
8887;SDS011;4480;52.370;9.748;2022-07-19T03:42:39;3.90;;;2.90;;
8887;SDS011;4480;52.370;9.748;2022-07-19T03:45:06;4.53;;;2.70;;
8887;SDS011;4480;52.370;9.748;2022-07-19T03:47:34;6.07;;;4.27;;
8887;SDS011;4480;52.370;9.748;2022-07-19T03:50:02;5.60;;;3.47;;
8887;SDS011;4480;52.370;9.748;2022-07-19T03:52:30;6.50;;;3.00;;
8887;SDS011;4480;52.370;9.748;2022-07-19T03:54:57;3.77;;;3.10;;
8887;SDS011;4480;52.370;9.748;2022-07-19T03:57:26;6.07;;;3.40;;
8887;SDS011;4480;52.370;9.748;2022-07-19T03:59:53;4.57;;;2.70;;
8887;SDS011;4480;52.370;9.748;2022-07-19T04:02:20;4.60;;;2.93;;
8887;SDS011;4480;52.370;9.748;2022-07-19T04:04:48;5.30;;;3.60;;
8887;SDS011;4480;52.370;9.748;2022-07-19T04:09:58;11.90;;;3.43;;
8887;SDS011;4480;52.370;9.748;2022-07-19T04:12:25;4.27;;;3.00;;
8887;SDS011;4480;52.370;9.748;2022-07-19T04:14:53;4.10;;;2.80;;
8887;SDS011;4480;52.370;9.748;2022-07-19T04:17:20;3.60;;;2.67;;
8887;SDS011;4480;52.370;9.748;2022-07-19T04:19:49;5.50;;;3.13;;
8887;SDS011;4480;52.370;9.748;2022-07-19T04:22:16;5.13;;;3.33;;
8887;SDS011;4480;52.370;9.748;2022-07-19T04:24:43;4.83;;;3.07;;
8887;SDS011;4480;52.370;9.748;2022-07-19T04:27:12;4.70;;;2.80;;
8887;SDS011;4480;52.370;9.748;2022-07-19T04:29:39;4.27;;;3.00;;
8887;SDS011;4480;52.370;9.748;2022-07-19T04:32:06;4.07;;;3.00;;
8887;SDS011;4480;52.370;9.748;2022-07-19T04:34:34;3.40;;;2.80;;
8887;SDS011;4480;52.370;9.748;2022-07-19T04:37:01;4.40;;;3.10;;
8887;SDS011;4480;52.370;9.748;2022-07-19T04:39:28;5.90;;;3.33;;
8887;SDS011;4480;52.370;9.748;2022-07-19T04:41:55;3.83;;;2.53;;
8887;SDS011;4480;52.370;9.748;2022-07-19T04:44:24;4.50;;;3.00;;
8887;SDS011;4480;52.370;9.748;2022-07-19T04:46:51;3.60;;;3.03;;
8887;SDS011;4480;52.370;9.748;2022-07-19T04:49:19;3.73;;;2.63;;
8887;SDS011;4480;52.370;9.748;2022-07-19T04:51:46;4.27;;;3.30;;
8887;SDS011;4480;52.370;9.748;2022-07-19T04:54:13;4.70;;;3.80;;
8887;SDS011;4480;52.370;9.748;2022-07-19T04:56:41;4.07;;;3.20;;
8887;SDS011;4480;52.370;9.748;2022-07-19T04:59:08;4.27;;;2.90;;
8887;SDS011;4480;52.370;9.748;2022-07-19T05:01:36;6.87;;;2.70;;
8887;SDS011;4480;52.370;9.748;2022-07-19T05:04:04;4.07;;;2.90;;
8887;SDS011;4480;52.370;9.748;2022-07-19T05:06:31;4.43;;;2.53;;
8887;SDS011;4480;52.370;9.748;2022-07-19T05:08:58;5.50;;;3.00;;
8887;SDS011;4480;52.370;9.748;2022-07-19T05:11:26;4.10;;;2.83;;
8887;SDS011;4480;52.370;9.748;2022-07-19T05:13:54;2.97;;;2.53;;
8887;SDS011;4480;52.370;9.748;2022-07-19T05:16:21;6.13;;;3.07;;
8887;SDS011;4480;52.370;9.748;2022-07-19T05:18:50;9.10;;;3.63;;
8887;SDS011;4480;52.370;9.748;2022-07-19T05:21:17;5.93;;;3.40;;
8887;SDS011;4480;52.370;9.748;2022-07-19T05:23:45;4.30;;;2.90;;
8887;SDS011;4480;52.370;9.748;2022-07-19T05:26:12;3.63;;;3.23;;
8887;SDS011;4480;52.370;9.748;2022-07-19T05:28:39;4.43;;;3.40;;
8887;SDS011;4480;52.370;9.748;2022-07-19T05:31:07;4.90;;;3.77;;
8887;SDS011;4480;52.370;9.748;2022-07-19T05:33:34;3.73;;;3.30;;
8887;SDS011;4480;52.370;9.748;2022-07-19T05:36:03;6.97;;;3.73;;
8887;SDS011;4480;52.370;9.748;2022-07-19T05:38:31;5.87;;;3.27;;
8887;SDS011;4480;52.370;9.748;2022-07-19T05:40:59;3.77;;;3.10;;
8887;SDS011;4480;52.370;9.748;2022-07-19T05:43:27;8.13;;;4.43;;
8887;SDS011;4480;52.370;9.748;2022-07-19T05:45:54;5.10;;;3.93;;
8887;SDS011;4480;52.370;9.748;2022-07-19T05:48:21;4.20;;;3.30;;
8887;SDS011;4480;52.370;9.748;2022-07-19T05:50:49;4.80;;;4.30;;
8887;SDS011;4480;52.370;9.748;2022-07-19T05:53:17;4.80;;;3.37;;
8887;SDS011;4480;52.370;9.748;2022-07-19T05:55:45;7.03;;;3.50;;
8887;SDS011;4480;52.370;9.748;2022-07-19T05:58:12;4.23;;;3.00;;
8887;SDS011;4480;52.370;9.748;2022-07-19T06:00:42;6.13;;;3.27;;
8887;SDS011;4480;52.370;9.748;2022-07-19T06:03:30;4.50;;;3.10;;
8887;SDS011;4480;52.370;9.748;2022-07-19T06:05:57;7.40;;;3.70;;
8887;SDS011;4480;52.370;9.748;2022-07-19T06:08:26;7.27;;;3.27;;
8887;SDS011;4480;52.370;9.748;2022-07-19T06:10:53;8.97;;;2.93;;
8887;SDS011;4480;52.370;9.748;2022-07-19T06:13:20;5.50;;;3.60;;
8887;SDS011;4480;52.370;9.748;2022-07-19T06:15:48;8.73;;;3.20;;
8887;SDS011;4480;52.370;9.748;2022-07-19T06:18:16;4.10;;;2.87;;
8887;SDS011;4480;52.370;9.748;2022-07-19T06:20:43;4.97;;;3.13;;
8887;SDS011;4480;52.370;9.748;2022-07-19T06:23:11;3.67;;;3.30;;
8887;SDS011;4480;52.370;9.748;2022-07-19T06:25:39;3.23;;;2.70;;
8887;SDS011;4480;52.370;9.748;2022-07-19T06:28:07;7.57;;;3.87;;
8887;SDS011;4480;52.370;9.748;2022-07-19T06:30:34;6.27;;;2.50;;
8887;SDS011;4480;52.370;9.748;2022-07-19T06:33:01;4.17;;;3.10;;
8887;SDS011;4480;52.370;9.748;2022-07-19T06:35:28;3.63;;;2.77;;
8887;SDS011;4480;52.370;9.748;2022-07-19T06:37:56;3.23;;;2.90;;
8887;SDS011;4480;52.370;9.748;2022-07-19T06:40:23;8.00;;;3.00;;
8887;SDS011;4480;52.370;9.748;2022-07-19T06:42:52;3.70;;;2.70;;
8887;SDS011;4480;52.370;9.748;2022-07-19T06:45:19;5.40;;;4.10;;
8887;SDS011;4480;52.370;9.748;2022-07-19T06:47:46;18.53;;;3.50;;
8887;SDS011;4480;52.370;9.748;2022-07-19T06:50:15;6.20;;;3.00;;
8887;SDS011;4480;52.370;9.748;2022-07-19T06:52:43;3.90;;;3.47;;
8887;SDS011;4480;52.370;9.748;2022-07-19T06:55:10;5.37;;;2.90;;
8887;SDS011;4480;52.370;9.748;2022-07-19T06:57:37;7.23;;;3.50;;
8887;SDS011;4480;52.370;9.748;2022-07-19T07:00:07;6.73;;;3.13;;
8887;SDS011;4480;52.370;9.748;2022-07-19T07:02:35;6.93;;;3.60;;
8887;SDS011;4480;52.370;9.748;2022-07-19T07:05:03;5.43;;;2.90;;
8887;SDS011;4480;52.370;9.748;2022-07-19T07:07:31;4.90;;;3.33;;
8887;SDS011;4480;52.370;9.748;2022-07-19T07:09:59;3.37;;;3.00;;
8887;SDS011;4480;52.370;9.748;2022-07-19T07:12:27;4.97;;;3.50;;
8887;SDS011;4480;52.370;9.748;2022-07-19T07:14:54;6.20;;;3.70;;
8887;SDS011;4480;52.370;9.748;2022-07-19T07:17:23;6.97;;;3.00;;
8887;SDS011;4480;52.370;9.748;2022-07-19T07:19:50;5.37;;;2.73;;
8887;SDS011;4480;52.370;9.748;2022-07-19T07:22:18;4.93;;;2.60;;
8887;SDS011;4480;52.370;9.748;2022-07-19T07:24:45;5.80;;;3.57;;
8887;SDS011;4480;52.370;9.748;2022-07-19T07:27:12;5.00;;;3.10;;
8887;SDS011;4480;52.370;9.748;2022-07-19T07:29:40;6.90;;;3.70;;
8887;SDS011;4480;52.370;9.748;2022-07-19T07:32:07;6.73;;;2.87;;
8887;SDS011;4480;52.370;9.748;2022-07-19T07:34:36;6.00;;;3.00;;
8887;SDS011;4480;52.370;9.748;2022-07-19T07:37:03;7.70;;;3.50;;
8887;SDS011;4480;52.370;9.748;2022-07-19T07:39:30;3.40;;;3.10;;
8887;SDS011;4480;52.370;9.748;2022-07-19T07:41:58;3.07;;;2.77;;
8887;SDS011;4480;52.370;9.748;2022-07-19T07:44:25;4.00;;;2.77;;
8887;SDS011;4480;52.370;9.748;2022-07-19T07:46:52;3.20;;;2.53;;
8887;SDS011;4480;52.370;9.748;2022-07-19T07:49:20;5.63;;;3.13;;
8887;SDS011;4480;52.370;9.748;2022-07-19T07:51:48;3.63;;;3.10;;
8887;SDS011;4480;52.370;9.748;2022-07-19T07:54:16;7.40;;;2.87;;
8887;SDS011;4480;52.370;9.748;2022-07-19T07:56:43;6.30;;;3.10;;
8887;SDS011;4480;52.370;9.748;2022-07-19T07:59:10;6.67;;;2.57;;
8887;SDS011;4480;52.370;9.748;2022-07-19T08:01:38;5.13;;;2.77;;
8887;SDS011;4480;52.370;9.748;2022-07-19T08:04:05;3.30;;;2.73;;
8887;SDS011;4480;52.370;9.748;2022-07-19T08:06:32;3.33;;;2.97;;
8887;SDS011;4480;52.370;9.748;2022-07-19T08:09:01;4.63;;;2.83;;
8887;SDS011;4480;52.370;9.748;2022-07-19T08:11:29;5.47;;;2.80;;
8887;SDS011;4480;52.370;9.748;2022-07-19T08:13:56;4.40;;;2.80;;
8887;SDS011;4480;52.370;9.748;2022-07-19T08:16:23;3.27;;;2.97;;
8887;SDS011;4480;52.370;9.748;2022-07-19T08:18:51;8.50;;;3.47;;
8887;SDS011;4480;52.370;9.748;2022-07-19T08:21:18;7.50;;;2.80;;
8887;SDS011;4480;52.370;9.748;2022-07-19T08:23:45;3.57;;;2.63;;
8887;SDS011;4480;52.370;9.748;2022-07-19T08:26:14;3.10;;;2.30;;
8887;SDS011;4480;52.370;9.748;2022-07-19T08:28:41;7.37;;;2.90;;
8887;SDS011;4480;52.370;9.748;2022-07-19T08:31:11;5.57;;;3.07;;
8887;SDS011;4480;52.370;9.748;2022-07-19T08:33:39;5.37;;;2.80;;
8887;SDS011;4480;52.370;9.748;2022-07-19T08:36:07;5.43;;;2.50;;
8887;SDS011;4480;52.370;9.748;2022-07-19T08:38:35;3.97;;;2.73;;
8887;SDS011;4480;52.370;9.748;2022-07-19T08:41:04;5.57;;;2.60;;
8887;SDS011;4480;52.370;9.748;2022-07-19T08:43:33;3.70;;;2.80;;
8887;SDS011;4480;52.370;9.748;2022-07-19T08:46:00;3.10;;;2.77;;
8887;SDS011;4480;52.370;9.748;2022-07-19T08:48:30;2.80;;;2.60;;
8887;SDS011;4480;52.370;9.748;2022-07-19T08:50:59;6.57;;;2.50;;
8887;SDS011;4480;52.370;9.748;2022-07-19T08:53:31;2.73;;;2.30;;
8887;SDS011;4480;52.370;9.748;2022-07-19T08:56:03;7.13;;;2.90;;
8887;SDS011;4480;52.370;9.748;2022-07-19T08:58:53;3.53;;;2.90;;
8887;SDS011;4480;52.370;9.748;2022-07-19T09:01:19;5.63;;;2.80;;
8887;SDS011;4480;52.370;9.748;2022-07-19T09:06:37;4.53;;;3.03;;
8887;SDS011;4480;52.370;9.748;2022-07-19T09:09:05;4.77;;;3.00;;
8887;SDS011;4480;52.370;9.748;2022-07-19T09:11:33;4.60;;;2.97;;
8887;SDS011;4480;52.370;9.748;2022-07-19T09:14:07;3.27;;;2.20;;
8887;SDS011;4480;52.370;9.748;2022-07-19T09:19:22;4.60;;;2.17;;
8887;SDS011;4480;52.370;9.748;2022-07-19T09:21:54;4.00;;;3.00;;
8887;SDS011;4480;52.370;9.748;2022-07-19T09:24:26;6.50;;;2.67;;
8887;SDS011;4480;52.370;9.748;2022-07-19T09:26:55;6.67;;;2.70;;
8887;SDS011;4480;52.370;9.748;2022-07-19T09:29:25;4.10;;;2.90;;
8887;SDS011;4480;52.370;9.748;2022-07-19T09:32:00;4.33;;;2.00;;
8887;SDS011;4480;52.370;9.748;2022-07-19T09:34:29;3.20;;;2.27;;
8887;SDS011;4480;52.370;9.748;2022-07-19T09:37:07;5.10;;;2.60;;
8887;SDS011;4480;52.370;9.748;2022-07-19T09:39:35;5.00;;;3.20;;
8887;SDS011;4480;52.370;9.748;2022-07-19T09:42:04;4.13;;;2.80;;
8887;SDS011;4480;52.370;9.748;2022-07-19T09:44:33;8.20;;;3.67;;
8887;SDS011;4480;52.370;9.748;2022-07-19T09:47:00;3.50;;;2.53;;
8887;SDS011;4480;52.370;9.748;2022-07-19T09:49:28;4.10;;;2.63;;
8887;SDS011;4480;52.370;9.748;2022-07-19T09:51:55;2.93;;;2.60;;
8887;SDS011;4480;52.370;9.748;2022-07-19T09:54:23;4.73;;;2.27;;
8887;SDS011;4480;52.370;9.748;2022-07-19T09:56:52;7.20;;;2.77;;
8887;SDS011;4480;52.370;9.748;2022-07-19T09:59:21;5.10;;;2.60;;
8887;SDS011;4480;52.370;9.748;2022-07-19T10:01:51;5.30;;;3.80;;
8887;SDS011;4480;52.370;9.748;2022-07-19T10:04:21;7.37;;;3.07;;
8887;SDS011;4480;52.370;9.748;2022-07-19T10:06:50;3.80;;;2.80;;
8887;SDS011;4480;52.370;9.748;2022-07-19T10:09:18;4.80;;;2.60;;
8887;SDS011;4480;52.370;9.748;2022-07-19T10:11:47;5.70;;;2.50;;
8887;SDS011;4480;52.370;9.748;2022-07-19T10:14:14;2.70;;;2.43;;
8887;SDS011;4480;52.370;9.748;2022-07-19T10:16:45;2.93;;;2.63;;
8887;SDS011;4480;52.370;9.748;2022-07-19T10:19:35;4.53;;;2.87;;
8887;SDS011;4480;52.370;9.748;2022-07-19T10:22:07;3.03;;;2.30;;
8887;SDS011;4480;52.370;9.748;2022-07-19T10:24:47;2.30;;;2.10;;
8887;SDS011;4480;52.370;9.748;2022-07-19T10:27:16;7.30;;;2.47;;
8887;SDS011;4480;52.370;9.748;2022-07-19T10:30:15;2.80;;;2.27;;
8887;SDS011;4480;52.370;9.748;2022-07-19T10:32:47;4.10;;;2.70;;
8887;SDS011;4480;52.370;9.748;2022-07-19T10:35:16;4.30;;;2.80;;
8887;SDS011;4480;52.370;9.748;2022-07-19T10:37:45;2.93;;;2.20;;
8887;SDS011;4480;52.370;9.748;2022-07-19T10:40:14;3.30;;;2.77;;
8887;SDS011;4480;52.370;9.748;2022-07-19T10:43:04;4.10;;;2.17;;
8887;SDS011;4480;52.370;9.748;2022-07-19T10:45:32;3.80;;;2.03;;
8887;SDS011;4480;52.370;9.748;2022-07-19T10:48:03;3.50;;;2.00;;
8887;SDS011;4480;52.370;9.748;2022-07-19T10:50:47;7.00;;;2.10;;
8887;SDS011;4480;52.370;9.748;2022-07-19T10:56:20;6.63;;;2.53;;
8887;SDS011;4480;52.370;9.748;2022-07-19T10:58:49;3.47;;;2.20;;
8887;SDS011;4480;52.370;9.748;2022-07-19T11:01:18;2.67;;;2.30;;
8887;SDS011;4480;52.370;9.748;2022-07-19T11:03:49;3.40;;;3.10;;
8887;SDS011;4480;52.370;9.748;2022-07-19T11:06:21;4.00;;;1.67;;
8887;SDS011;4480;52.370;9.748;2022-07-19T11:08:52;4.70;;;2.00;;
8887;SDS011;4480;52.370;9.748;2022-07-19T11:11:21;6.80;;;2.33;;
8887;SDS011;4480;52.370;9.748;2022-07-19T11:13:49;5.10;;;2.10;;
8887;SDS011;4480;52.370;9.748;2022-07-19T11:16:17;5.47;;;2.07;;
8887;SDS011;4480;52.370;9.748;2022-07-19T11:18:45;3.13;;;2.10;;
8887;SDS011;4480;52.370;9.748;2022-07-19T11:21:14;3.60;;;1.90;;
8887;SDS011;4480;52.370;9.748;2022-07-19T11:23:43;3.73;;;1.80;;
8887;SDS011;4480;52.370;9.748;2022-07-19T11:26:11;3.47;;;2.13;;
8887;SDS011;4480;52.370;9.748;2022-07-19T11:28:41;3.57;;;2.53;;
8887;SDS011;4480;52.370;9.748;2022-07-19T11:31:12;2.63;;;2.40;;
8887;SDS011;4480;52.370;9.748;2022-07-19T11:33:41;2.40;;;2.20;;
8887;SDS011;4480;52.370;9.748;2022-07-19T11:36:10;5.00;;;2.00;;
8887;SDS011;4480;52.370;9.748;2022-07-19T11:38:43;6.20;;;2.27;;
8887;SDS011;4480;52.370;9.748;2022-07-19T11:41:11;4.07;;;2.40;;
8887;SDS011;4480;52.370;9.748;2022-07-19T11:43:41;2.77;;;2.13;;
8887;SDS011;4480;52.370;9.748;2022-07-19T11:46:08;6.90;;;2.90;;
8887;SDS011;4480;52.370;9.748;2022-07-19T11:48:36;4.53;;;2.47;;
8887;SDS011;4480;52.370;9.748;2022-07-19T11:51:04;5.70;;;2.63;;
8887;SDS011;4480;52.370;9.748;2022-07-19T11:53:34;8.70;;;2.50;;
8887;SDS011;4480;52.370;9.748;2022-07-19T11:56:06;2.50;;;2.30;;
8887;SDS011;4480;52.370;9.748;2022-07-19T11:58:42;3.83;;;2.50;;
8887;SDS011;4480;52.370;9.748;2022-07-19T12:01:10;2.87;;;2.10;;
8887;SDS011;4480;52.370;9.748;2022-07-19T12:03:38;2.60;;;2.03;;
8887;SDS011;4480;52.370;9.748;2022-07-19T12:06:06;7.27;;;2.20;;
8887;SDS011;4480;52.370;9.748;2022-07-19T12:08:36;4.67;;;2.87;;
8887;SDS011;4480;52.370;9.748;2022-07-19T12:11:22;3.00;;;2.43;;
8887;SDS011;4480;52.370;9.748;2022-07-19T12:13:52;2.90;;;2.30;;
8887;SDS011;4480;52.370;9.748;2022-07-19T12:16:23;5.93;;;2.80;;
8887;SDS011;4480;52.370;9.748;2022-07-19T12:18:51;3.30;;;3.00;;
8887;SDS011;4480;52.370;9.748;2022-07-19T12:21:20;4.57;;;2.83;;
8887;SDS011;4480;52.370;9.748;2022-07-19T12:26:44;6.40;;;2.07;;
8887;SDS011;4480;52.370;9.748;2022-07-19T12:29:26;4.13;;;2.90;;
8887;SDS011;4480;52.370;9.748;2022-07-19T12:31:56;7.53;;;3.30;;
8887;SDS011;4480;52.370;9.748;2022-07-19T12:34:25;4.13;;;2.40;;
8887;SDS011;4480;52.370;9.748;2022-07-19T12:36:53;4.77;;;2.87;;
8887;SDS011;4480;52.370;9.748;2022-07-19T12:39:22;3.30;;;3.00;;
8887;SDS011;4480;52.370;9.748;2022-07-19T12:41:57;7.00;;;3.07;;
8887;SDS011;4480;52.370;9.748;2022-07-19T12:44:26;5.10;;;2.93;;
8887;SDS011;4480;52.370;9.748;2022-07-19T12:46:54;6.60;;;2.70;;
8887;SDS011;4480;52.370;9.748;2022-07-19T12:49:22;4.70;;;2.77;;
8887;SDS011;4480;52.370;9.748;2022-07-19T12:51:50;3.40;;;2.43;;
8887;SDS011;4480;52.370;9.748;2022-07-19T12:54:17;6.50;;;2.70;;
8887;SDS011;4480;52.370;9.748;2022-07-19T12:56:45;3.63;;;2.53;;
8887;SDS011;4480;52.370;9.748;2022-07-19T12:59:13;4.40;;;2.90;;
8887;SDS011;4480;52.370;9.748;2022-07-19T13:01:58;5.97;;;3.10;;
8887;SDS011;4480;52.370;9.748;2022-07-19T13:04:26;4.60;;;2.57;;
8887;SDS011;4480;52.370;9.748;2022-07-19T13:06:53;5.63;;;2.43;;
8887;SDS011;4480;52.370;9.748;2022-07-19T13:09:20;7.30;;;2.90;;
8887;SDS011;4480;52.370;9.748;2022-07-19T13:11:48;3.13;;;2.60;;
8887;SDS011;4480;52.370;9.748;2022-07-19T13:14:16;4.27;;;2.70;;
8887;SDS011;4480;52.370;9.748;2022-07-19T13:16:44;6.03;;;2.50;;
8887;SDS011;4480;52.370;9.748;2022-07-19T13:19:11;4.70;;;2.40;;
8887;SDS011;4480;52.370;9.748;2022-07-19T13:21:38;4.60;;;2.93;;
8887;SDS011;4480;52.370;9.748;2022-07-19T13:24:06;5.97;;;2.90;;
8887;SDS011;4480;52.370;9.748;2022-07-19T13:26:33;5.40;;;3.10;;
8887;SDS011;4480;52.370;9.748;2022-07-19T13:29:01;2.87;;;2.57;;
8887;SDS011;4480;52.370;9.748;2022-07-19T13:31:30;4.03;;;2.80;;
8887;SDS011;4480;52.370;9.748;2022-07-19T13:33:58;4.77;;;2.70;;
8887;SDS011;4480;52.370;9.748;2022-07-19T13:36:25;4.10;;;2.70;;
8887;SDS011;4480;52.370;9.748;2022-07-19T13:38:52;2.77;;;2.37;;
8887;SDS011;4480;52.370;9.748;2022-07-19T13:41:20;3.50;;;2.20;;
8887;SDS011;4480;52.370;9.748;2022-07-19T13:43:47;2.13;;;1.93;;
8887;SDS011;4480;52.370;9.748;2022-07-19T13:46:18;2.40;;;2.20;;
8887;SDS011;4480;52.370;9.748;2022-07-19T13:48:47;2.73;;;2.03;;
8887;SDS011;4480;52.370;9.748;2022-07-19T13:51:14;2.90;;;2.13;;
8887;SDS011;4480;52.370;9.748;2022-07-19T13:53:41;7.00;;;2.50;;
8887;SDS011;4480;52.370;9.748;2022-07-19T13:56:08;4.90;;;3.23;;
8887;SDS011;4480;52.370;9.748;2022-07-19T13:58:36;3.33;;;2.20;;
8887;SDS011;4480;52.370;9.748;2022-07-19T14:01:03;3.97;;;2.17;;
8887;SDS011;4480;52.370;9.748;2022-07-19T14:03:31;3.73;;;2.33;;
8887;SDS011;4480;52.370;9.748;2022-07-19T14:05:59;2.67;;;2.20;;
8887;SDS011;4480;52.370;9.748;2022-07-19T14:08:27;2.53;;;2.13;;
8887;SDS011;4480;52.370;9.748;2022-07-19T14:10:54;9.77;;;2.40;;
8887;SDS011;4480;52.370;9.748;2022-07-19T14:13:22;6.37;;;2.50;;
8887;SDS011;4480;52.370;9.748;2022-07-19T14:15:49;5.77;;;2.53;;
8887;SDS011;4480;52.370;9.748;2022-07-19T14:18:16;3.30;;;2.80;;
8887;SDS011;4480;52.370;9.748;2022-07-19T14:20:44;2.40;;;2.20;;
8887;SDS011;4480;52.370;9.748;2022-07-19T14:23:13;3.40;;;2.27;;
8887;SDS011;4480;52.370;9.748;2022-07-19T14:25:40;3.57;;;2.67;;
8887;SDS011;4480;52.370;9.748;2022-07-19T14:28:08;3.73;;;2.83;;
8887;SDS011;4480;52.370;9.748;2022-07-19T14:30:35;3.87;;;2.23;;
8887;SDS011;4480;52.370;9.748;2022-07-19T14:33:03;2.57;;;2.20;;
8887;SDS011;4480;52.370;9.748;2022-07-19T14:35:30;3.70;;;2.30;;
8887;SDS011;4480;52.370;9.748;2022-07-19T14:37:58;2.50;;;2.20;;
8887;SDS011;4480;52.370;9.748;2022-07-19T14:40:27;4.83;;;2.43;;
8887;SDS011;4480;52.370;9.748;2022-07-19T14:42:54;2.30;;;2.00;;
8887;SDS011;4480;52.370;9.748;2022-07-19T14:45:21;3.30;;;2.37;;
8887;SDS011;4480;52.370;9.748;2022-07-19T14:47:49;4.50;;;2.77;;
8887;SDS011;4480;52.370;9.748;2022-07-19T14:50:16;3.37;;;2.40;;
8887;SDS011;4480;52.370;9.748;2022-07-19T14:52:43;4.23;;;2.70;;
8887;SDS011;4480;52.370;9.748;2022-07-19T14:55:11;4.10;;;2.40;;
8887;SDS011;4480;52.370;9.748;2022-07-19T14:57:40;2.90;;;2.37;;
8887;SDS011;4480;52.370;9.748;2022-07-19T15:00:09;2.80;;;2.23;;
8887;SDS011;4480;52.370;9.748;2022-07-19T15:02:37;3.33;;;2.70;;
8887;SDS011;4480;52.370;9.748;2022-07-19T15:05:05;5.37;;;2.10;;
8887;SDS011;4480;52.370;9.748;2022-07-19T15:07:33;5.63;;;2.90;;
8887;SDS011;4480;52.370;9.748;2022-07-19T15:10:00;5.30;;;2.67;;
8887;SDS011;4480;52.370;9.748;2022-07-19T15:12:27;5.33;;;2.93;;
8887;SDS011;4480;52.370;9.748;2022-07-19T15:14:56;4.30;;;2.93;;
8887;SDS011;4480;52.370;9.748;2022-07-19T15:17:24;4.00;;;2.80;;
8887;SDS011;4480;52.370;9.748;2022-07-19T15:19:51;2.83;;;2.30;;
8887;SDS011;4480;52.370;9.748;2022-07-19T15:22:19;4.90;;;2.67;;
8887;SDS011;4480;52.370;9.748;2022-07-19T15:24:46;4.70;;;2.87;;
8887;SDS011;4480;52.370;9.748;2022-07-19T15:27:14;4.90;;;2.53;;
8887;SDS011;4480;52.370;9.748;2022-07-19T15:29:41;3.27;;;2.50;;
8887;SDS011;4480;52.370;9.748;2022-07-19T15:32:10;3.40;;;2.40;;
8887;SDS011;4480;52.370;9.748;2022-07-19T15:34:39;3.20;;;2.53;;
8887;SDS011;4480;52.370;9.748;2022-07-19T15:37:07;4.30;;;2.87;;